Time;durP1;ratioP1;P1;durP2;ratioP2;P2;SDS_P1;SDS_P2;PMS_P1;PMS_P2;Temp;Humidity;BMP_temperature;BMP_pressure;BME280_temperature;BME280_humidity;BME280_pressure;Samples;Min_cycle;Max_cycle;Signal;HPM_P1;HPM_P2
2022/07/15 00:00:25;;;;;;;1.98;1.30;;;17.10;99.90;;;;;;5052790;28;20195;-72
2022/07/15 00:02:50;;;;;;;2.67;0.93;;;17.10;99.90;;;;;;5071561;28;20179;-71
2022/07/15 00:05:16;;;;;;;3.78;1.52;;;17.00;99.90;;;;;;5045413;28;20565;-69
2022/07/15 00:07:42;;;;;;;3.08;0.77;;;17.00;99.90;;;;;;5070107;28;20207;-69
2022/07/15 00:10:14;;;;;;;4.82;1.02;;;17.10;99.90;;;;;;5070625;28;20222;-69
2022/07/15 00:12:41;;;;;;;1.95;0.90;;;16.90;99.90;;;;;;5070662;28;20210;-71
2022/07/15 00:15:07;;;;;;;3.50;1.10;;;16.90;99.90;;;;;;5070867;28;20225;-71
2022/07/15 00:17:33;;;;;;;3.58;1.02;;;16.80;99.90;;;;;;5073986;28;20194;-70
2022/07/15 00:19:59;;;;;;;2.67;1.02;;;16.80;99.90;;;;;;5070325;28;20217;-71
2022/07/15 00:22:25;;;;;;;2.80;1.10;;;16.80;99.90;;;;;;5070401;28;20207;-72
2022/07/15 00:24:51;;;;;;;2.90;1.17;;;16.80;99.90;;;;;;5070742;28;20206;-71
2022/07/15 00:27:17;;;;;;;2.00;1.33;;;16.70;99.90;;;;;;5070635;28;20198;-71
2022/07/15 00:29:42;;;;;;;5.93;2.03;;;16.70;99.90;;;;;;5070794;28;20199;-69
2022/07/15 00:32:08;;;;;;;2.78;1.65;;;16.50;99.90;;;;;;5052547;28;20203;-71
2022/07/15 00:34:34;;;;;;;3.08;1.40;;;16.60;99.90;;;;;;5062238;28;20207;-72
2022/07/15 00:36:59;;;;;;;2.88;1.30;;;16.40;99.90;;;;;;5052421;28;20289;-71
2022/07/15 00:39:25;;;;;;;2.38;1.08;;;16.40;99.90;;;;;;5069803;28;20608;-72
2022/07/15 00:41:51;;;;;;;7.25;1.42;;;16.40;99.90;;;;;;5071227;28;20178;-71
2022/07/15 00:44:16;;;;;;;3.08;1.25;;;16.20;99.90;;;;;;5070513;28;20203;-71
2022/07/15 00:46:42;;;;;;;2.83;1.20;;;16.20;99.90;;;;;;5070334;28;20700;-70
2022/07/15 00:49:09;;;;;;;2.72;1.15;;;16.30;99.90;;;;;;5070051;28;20241;-71
2022/07/15 00:51:43;;;;;;;7.57;1.40;;;16.20;99.90;;;;;;5068919;28;20221;-71
2022/07/15 00:54:14;;;;;;;1.00;0.88;;;16.10;99.90;;;;;;5070404;28;20175;-71
2022/07/15 00:56:45;;;;;;;3.60;1.00;;;16.10;99.90;;;;;;5052581;28;20171;-72
2022/07/15 00:59:12;;;;;;;4.38;1.40;;;16.20;99.90;;;;;;5070222;28;20206;-71
2022/07/15 01:01:38;;;;;;;2.25;1.35;;;16.10;99.90;;;;;;5070163;28;20372;-71
2022/07/15 01:04:04;;;;;;;8.77;1.65;;;16.10;99.90;;;;;;5052268;28;20331;-71
2022/07/15 01:06:30;;;;;;;3.35;1.23;;;16.00;99.90;;;;;;5069872;28;20219;-71
2022/07/15 01:08:56;;;;;;;3.17;1.48;;;16.00;99.90;;;;;;5070391;28;20727;-72
2022/07/15 01:11:21;;;;;;;2.45;1.23;;;15.90;99.90;;;;;;5070054;28;20215;-71
2022/07/15 01:13:47;;;;;;;4.32;1.45;;;15.90;99.90;;;;;;5070363;28;20206;-71
2022/07/15 01:16:13;;;;;;;1.58;0.98;;;15.90;99.90;;;;;;5070094;28;20223;-72
2022/07/15 01:18:38;;;;;;;4.80;1.50;;;15.90;99.90;;;;;;5072668;28;20206;-71
2022/07/15 01:21:04;;;;;;;3.78;1.35;;;15.80;99.90;;;;;;5052087;28;20183;-71
2022/07/15 01:23:29;;;;;;;4.50;1.27;;;15.80;99.90;;;;;;5070176;28;20297;-71
2022/07/15 01:25:55;;;;;;;4.28;1.42;;;15.90;99.90;;;;;;5052048;28;20298;-71
2022/07/15 01:28:21;;;;;;;2.42;1.08;;;15.80;99.90;;;;;;5061465;28;20207;-71
2022/07/15 01:30:47;;;;;;;3.22;1.50;;;15.80;99.90;;;;;;5052064;28;20701;-71
2022/07/15 01:33:13;;;;;;;4.15;1.40;;;15.80;99.90;;;;;;5069948;28;20590;-71
2022/07/15 01:35:39;;;;;;;7.93;1.50;;;15.90;99.90;;;;;;5070359;28;20180;-71
2022/07/15 01:38:04;;;;;;;4.75;1.33;;;15.80;99.90;;;;;;5069721;28;20203;-70
2022/07/15 01:40:30;;;;;;;4.00;1.42;;;15.70;99.90;;;;;;5051922;28;20268;-71
2022/07/15 01:42:56;;;;;;;7.38;1.73;;;15.50;99.90;;;;;;5051988;28;20695;-71
2022/07/15 01:45:21;;;;;;;2.75;1.08;;;15.50;99.90;;;;;;5070073;28;20175;-72
2022/07/15 01:47:49;;;;;;;3.25;1.70;;;15.60;99.90;;;;;;5070309;28;20209;-71
2022/07/15 01:50:15;;;;;;;6.88;2.28;;;15.60;99.90;;;;;;5069341;28;20216;-71
2022/07/15 01:52:41;;;;;;;4.78;1.45;;;15.40;99.90;;;;;;5069764;28;20219;-71
2022/07/15 01:55:08;;;;;;;6.63;2.10;;;15.20;99.90;;;;;;5070036;28;20206;-71
2022/07/15 01:57:34;;;;;;;8.13;2.00;;;15.20;99.90;;;;;;5069914;28;20352;-72
2022/07/15 02:00:00;;;;;;;6.95;1.92;;;15.10;99.90;;;;;;5069784;28;20203;-71
2022/07/15 02:02:25;;;;;;;5.78;1.58;;;15.20;99.90;;;;;;5070134;28;20649;-71
2022/07/15 02:04:52;;;;;;;5.43;1.75;;;15.20;99.90;;;;;;5067024;28;21037;-71
2022/07/15 02:07:18;;;;;;;8.75;3.00;;;15.10;99.90;;;;;;5062268;28;20214;-71
2022/07/15 02:12:13;;;;;;;5.40;1.63;;;15.20;99.90;;;;;;5081955;28;20246;-70
2022/07/15 02:14:39;;;;;;;5.13;2.10;;;15.10;99.90;;;;;;5082145;28;20648;-70
2022/07/15 02:17:05;;;;;;;8.35;3.28;;;15.10;99.90;;;;;;5082158;28;20206;-70
2022/07/15 02:19:30;;;;;;;5.18;1.55;;;15.10;99.90;;;;;;5074142;28;20289;-70
2022/07/15 02:21:56;;;;;;;6.78;2.45;;;14.90;99.90;;;;;;5085284;28;20206;-69
2022/07/15 02:24:22;;;;;;;9.00;2.10;;;15.00;99.90;;;;;;5085817;28;20174;-69
2022/07/15 02:26:49;;;;;;;4.65;1.30;;;14.90;99.90;;;;;;5087360;28;20233;-69
2022/07/15 02:29:16;;;;;;;6.70;2.13;;;14.90;99.90;;;;;;5083299;28;20199;-70
2022/07/15 02:31:41;;;;;;;5.93;1.60;;;14.90;99.90;;;;;;5084830;28;20602;-70
2022/07/15 02:34:07;;;;;;;5.50;1.83;;;14.80;99.90;;;;;;5068116;28;20209;-70
2022/07/15 02:36:33;;;;;;;5.38;1.50;;;14.80;99.90;;;;;;5059038;28;20207;-70
2022/07/15 02:38:59;;;;;;;3.47;1.50;;;14.90;99.90;;;;;;5085288;28;20163;-70
2022/07/15 02:41:25;;;;;;;6.70;1.42;;;14.70;99.90;;;;;;5084094;28;20206;-69
2022/07/15 02:43:51;;;;;;;5.03;1.40;;;14.70;99.90;;;;;;5081046;28;20199;-70
2022/07/15 02:46:17;;;;;;;8.13;2.08;;;14.70;99.90;;;;;;5081175;28;20210;-70
2022/07/15 02:48:43;;;;;;;3.83;1.70;;;14.70;99.90;;;;;;5081833;28;20285;-70
2022/07/15 02:51:09;;;;;;;4.87;1.67;;;14.70;99.90;;;;;;5081711;28;20217;-70
2022/07/15 02:53:35;;;;;;;9.18;1.98;;;14.70;99.90;;;;;;5065787;28;20647;-70
2022/07/15 02:56:01;;;;;;;7.25;1.90;;;14.70;99.90;;;;;;5085356;28;20608;-70
2022/07/15 02:58:29;;;;;;;5.53;1.90;;;14.70;99.90;;;;;;5083967;28;20225;-69
2022/07/15 03:00:55;;;;;;;5.32;1.40;;;14.70;99.90;;;;;;5081469;28;20203;-69
2022/07/15 03:03:20;;;;;;;10.13;2.08;;;14.60;99.90;;;;;;5063085;28;20179;-70
2022/07/15 03:05:46;;;;;;;6.78;1.98;;;14.60;99.90;;;;;;5074221;28;20175;-70
2022/07/15 03:08:12;;;;;;;6.32;1.48;;;14.60;99.90;;;;;;5080813;28;20214;-69
2022/07/15 03:10:38;;;;;;;8.40;2.08;;;14.70;99.90;;;;;;5083334;28;20223;-70
2022/07/15 03:13:03;;;;;;;8.05;1.80;;;14.70;99.90;;;;;;5066415;28;20231;-70
2022/07/15 03:15:29;;;;;;;5.95;1.98;;;14.70;99.90;;;;;;5065863;28;20595;-70
2022/07/15 03:17:55;;;;;;;9.25;2.03;;;14.80;99.90;;;;;;5081452;28;20594;-71
2022/07/15 03:20:21;;;;;;;4.50;1.65;;;14.70;99.90;;;;;;5080577;28;20289;-70
2022/07/15 03:22:46;;;;;;;3.85;1.48;;;14.60;99.90;;;;;;5067550;28;20206;-70
2022/07/15 03:25:12;;;;;;;6.15;1.98;;;14.70;99.90;;;;;;5066378;28;20210;-70
2022/07/15 03:27:38;;;;;;;5.57;1.70;;;14.70;99.90;;;;;;5081340;28;20233;-71
2022/07/15 03:30:04;;;;;;;5.40;1.90;;;14.70;99.90;;;;;;5080972;28;20202;-70
2022/07/15 03:32:30;;;;;;;10.05;1.92;;;14.70;99.90;;;;;;5081762;28;20242;-70
2022/07/15 03:34:59;;;;;;;5.38;2.03;;;14.80;99.90;;;;;;5084160;28;20202;-70
2022/07/15 03:37:25;;;;;;;8.40;2.42;;;15.00;99.90;;;;;;5083879;28;20206;-69
2022/07/15 03:39:51;;;;;;;6.80;1.73;;;15.60;99.90;;;;;;5080331;28;20203;-70
2022/07/15 03:42:16;;;;;;;4.82;1.75;;;16.80;99.90;;;;;;5062480;28;20632;-70
2022/07/15 03:44:42;;;;;;;5.93;1.60;;;17.30;99.90;;;;;;5083688;28;20227;-70
2022/07/15 03:47:07;;;;;;;10.65;1.67;;;17.80;99.90;;;;;;5083943;28;20233;-70
2022/07/15 03:49:33;;;;;;;6.03;1.85;;;18.60;99.90;;;;;;5081572;28;20679;-70
2022/07/15 03:51:58;;;;;;;3.60;1.27;;;18.90;99.90;;;;;;5079824;28;20210;-70
2022/07/15 03:54:24;;;;;;;5.13;1.40;;;19.20;99.90;;;;;;5061752;28;20171;-69
2022/07/15 03:56:50;;;;;;;4.88;1.70;;;20.00;99.90;;;;;;5084156;28;20254;-70
2022/07/15 03:59:17;;;;;;;5.30;1.40;;;20.50;99.90;;;;;;5083601;28;20230;-70
2022/07/15 04:01:43;;;;;;;5.20;1.60;;;21.00;99.90;;;;;;5080249;28;20709;-69
2022/07/15 04:04:09;;;;;;;4.70;1.73;;;21.40;99.90;;;;;;5080319;28;20256;-70
2022/07/15 04:06:35;;;;;;;6.28;1.67;;;21.70;99.90;;;;;;5080459;28;20222;-71
2022/07/15 04:09:01;;;;;;;7.88;1.85;;;19.70;99.90;;;;;;5062201;28;20907;-70
2022/07/15 04:11:27;;;;;;;5.75;1.60;;;18.50;99.90;;;;;;5063869;28;20576;-71
2022/07/15 04:13:53;;;;;;;3.72;1.73;;;17.40;99.90;;;;;;5083364;28;20259;-71
2022/07/15 04:16:18;;;;;;;7.70;1.95;;;16.90;99.90;;;;;;5083058;28;20259;-70
2022/07/15 04:18:44;;;;;;;7.43;1.83;;;16.40;99.90;;;;;;5076082;28;20222;-70
2022/07/15 04:21:10;;;;;;;6.28;1.67;;;16.10;99.90;;;;;;5086871;28;20190;-71
2022/07/15 04:23:36;;;;;;;7.05;1.88;;;16.10;99.90;;;;;;5091760;28;20193;-70
2022/07/15 04:26:02;;;;;;;5.45;1.92;;;16.10;99.90;;;;;;5090739;28;20201;-70
2022/07/15 04:28:28;;;;;;;6.72;1.80;;;16.20;99.90;;;;;;5072986;28;20206;-70
2022/07/15 04:30:53;;;;;;;5.72;1.83;;;16.40;99.90;;;;;;5091428;28;20559;-70
2022/07/15 04:33:19;;;;;;;5.68;1.98;;;16.10;99.90;;;;;;5073381;28;20177;-70
2022/07/15 04:35:46;;;;;;;5.70;1.90;;;16.20;99.90;;;;;;5091761;28;20262;-70
2022/07/15 04:38:11;;;;;;;5.25;2.75;;;16.20;99.90;;;;;;5091360;28;20198;-70
2022/07/15 04:40:41;;;;;;;6.93;1.73;;;16.80;99.90;;;;;;5091508;28;20213;-70
2022/07/15 04:43:06;;;;;;;5.22;1.83;;;18.00;99.90;;;;;;5073468;28;20233;-71
2022/07/15 04:45:32;;;;;;;4.53;2.30;;;20.90;99.90;;;;;;5091272;28;20210;-71
2022/07/15 04:47:58;;;;;;;7.95;2.40;;;19.70;99.90;;;;;;5091812;28;20566;-70
2022/07/15 04:53:09;;;;;;;6.95;2.33;;;18.40;99.90;;;;;;5071318;28;20344;-70
2022/07/15 04:55:34;;;;;;;9.73;2.50;;;18.00;99.90;;;;;;5071406;28;20256;-70
2022/07/15 04:58:00;;;;;;;3.72;1.92;;;18.10;99.90;;;;;;5071089;28;20222;-70
2022/07/15 05:00:26;;;;;;;4.43;1.83;;;17.60;99.90;;;;;;5070723;28;20226;-70
2022/07/15 05:02:52;;;;;;;5.95;1.70;;;17.50;99.90;;;;;;5071279;28;20170;-70
2022/07/15 05:05:18;;;;;;;5.00;1.90;;;17.50;99.90;;;;;;5071116;28;20675;-70
2022/07/15 05:07:45;;;;;;;6.53;2.10;;;17.20;99.90;;;;;;5070470;28;20579;-69
2022/07/15 05:10:11;;;;;;;8.25;1.90;;;17.30;99.90;;;;;;5070842;28;20229;-70
2022/07/15 05:12:38;;;;;;;4.63;1.98;;;17.50;99.90;;;;;;5071184;28;20639;-70
2022/07/15 05:15:04;;;;;;;5.57;1.65;;;18.70;99.90;;;;;;5053368;28;20174;-70
2022/07/15 05:17:30;;;;;;;7.05;1.63;;;21.60;99.90;;;;;;5052537;28;20207;-70
2022/07/15 05:19:56;;;;;;;5.03;1.63;;;23.30;99.90;;;;;;5072672;28;20201;-70
2022/07/15 05:22:22;;;;;;;5.43;2.08;;;24.90;99.90;;;;;;5070614;28;20297;-71
2022/07/15 05:24:48;;;;;;;6.25;1.38;;;26.40;99.90;;;;;;5053212;28;20991;-70
2022/07/15 05:27:14;;;;;;;5.55;1.42;;;27.20;99.90;;;;;;5070671;28;20718;-70
2022/07/15 05:29:39;;;;;;;6.90;2.08;;;28.00;99.90;;;;;;5052607;28;20310;-70
2022/07/15 05:32:05;;;;;;;5.38;1.20;;;27.90;99.90;;;;;;5070824;28;20198;-72
2022/07/15 05:34:31;;;;;;;5.68;1.55;;;28.30;99.90;;;;;;5070592;28;20207;-71
2022/07/15 05:36:57;;;;;;;4.07;1.58;;;27.50;99.90;;;;;;5071010;28;20210;-70
2022/07/15 05:39:23;;;;;;;7.72;1.60;;;27.50;99.90;;;;;;5073743;28;20178;-70
2022/07/15 05:41:48;;;;;;;6.45;1.50;;;26.90;99.90;;;;;;5075044;28;20286;-70
2022/07/15 05:44:14;;;;;;;4.88;1.60;;;26.40;99.90;;;;;;5074516;28;20226;-71
2022/07/15 05:46:39;;;;;;;4.30;1.48;;;27.00;99.90;;;;;;5073714;28;20214;-70
2022/07/15 05:49:05;;;;;;;5.45;1.95;;;26.60;99.90;;;;;;5074372;28;20199;-70
2022/07/15 05:51:30;;;;;;;5.82;1.45;;;27.10;99.90;;;;;;5056110;28;20298;-70
2022/07/15 05:53:56;;;;;;;3.83;1.50;;;27.30;99.90;;;;;;5056818;28;20163;-70
2022/07/15 05:56:22;;;;;;;4.18;1.60;;;27.40;99.90;;;;;;5074069;28;20741;-71
2022/07/15 05:58:48;;;;;;;4.32;1.23;;;28.40;99.50;;;;;;5073887;28;20689;-68
2022/07/15 06:01:13;;;;;;;4.85;1.77;;;28.90;98.10;;;;;;5073503;28;20746;-69
2022/07/15 06:03:39;;;;;;;6.10;1.25;;;29.40;96.00;;;;;;5073916;28;20301;-70
2022/07/15 06:06:06;;;;;;;5.60;1.58;;;28.20;96.30;;;;;;5074162;28;20195;-69
2022/07/15 06:08:32;;;;;;;3.33;1.58;;;26.70;97.80;;;;;;5073887;28;20222;-69
2022/07/15 06:10:57;;;;;;;3.97;1.33;;;25.30;99.90;;;;;;5055638;28;20207;-69
2022/07/15 06:13:23;;;;;;;3.22;1.30;;;24.00;99.90;;;;;;5055652;28;20838;-69
2022/07/15 06:15:48;;;;;;;3.67;1.45;;;23.40;99.90;;;;;;5060783;28;20202;-68
2022/07/15 06:18:14;;;;;;;5.75;1.48;;;22.60;99.90;;;;;;5075712;28;20178;-69
2022/07/15 06:20:40;;;;;;;5.53;1.50;;;21.50;99.90;;;;;;5077824;28;20191;-69
2022/07/15 06:23:06;;;;;;;4.28;1.40;;;21.20;99.90;;;;;;5075004;28;20557;-69
2022/07/15 06:25:31;;;;;;;5.05;1.45;;;21.00;99.90;;;;;;5073380;28;20199;-69
2022/07/15 06:27:57;;;;;;;4.10;1.13;;;20.60;99.90;;;;;;5055221;28;20297;-69
2022/07/15 06:30:23;;;;;;;5.97;1.52;;;20.20;99.90;;;;;;5073288;28;20201;-70
2022/07/15 06:32:48;;;;;;;3.13;1.35;;;20.20;99.90;;;;;;5056438;28;20921;-70
2022/07/15 06:35:14;;;;;;;5.47;1.33;;;20.40;99.90;;;;;;5073900;28;20210;-69
2022/07/15 06:37:40;;;;;;;4.10;1.13;;;20.40;99.90;;;;;;5055075;28;20211;-70
2022/07/15 06:40:06;;;;;;;5.18;1.25;;;20.10;99.90;;;;;;5073194;28;20564;-70
2022/07/15 06:42:32;;;;;;;9.48;1.50;;;19.90;99.90;;;;;;5073287;28;20294;-70
2022/07/15 06:44:57;;;;;;;3.00;1.27;;;19.90;99.90;;;;;;5055762;28;20270;-70
2022/07/15 06:47:23;;;;;;;5.88;1.80;;;19.90;99.90;;;;;;5072877;28;20207;-70
2022/07/15 06:49:49;;;;;;;4.05;1.13;;;19.90;99.90;;;;;;5072079;28;20202;-70
2022/07/15 06:52:16;;;;;;;6.25;1.35;;;19.80;99.90;;;;;;5073068;28;20761;-70
2022/07/15 06:54:41;;;;;;;6.93;1.15;;;19.80;99.90;;;;;;5055042;28;20597;-70
2022/07/15 06:57:07;;;;;;;3.88;1.10;;;19.90;99.90;;;;;;5072713;28;20175;-70
2022/07/15 06:59:33;;;;;;;2.90;1.15;;;20.40;99.90;;;;;;5072974;28;20175;-70
2022/07/15 07:01:58;;;;;;;4.75;1.65;;;21.20;99.90;;;;;;5072834;28;20230;-70
2022/07/15 07:04:24;;;;;;;3.13;1.00;;;21.60;99.90;;;;;;5072835;28;20209;-69
2022/07/15 07:06:50;;;;;;;6.32;2.17;;;21.70;99.90;;;;;;5072817;28;20211;-69
2022/07/15 07:09:15;;;;;;;5.60;1.50;;;21.70;99.90;;;;;;5072477;28;20183;-70
2022/07/15 07:11:41;;;;;;;4.43;1.10;;;21.70;99.90;;;;;;5054997;28;20215;-70
2022/07/15 07:14:07;;;;;;;4.57;1.17;;;21.20;99.90;;;;;;5073578;28;20207;-70
2022/07/15 07:16:33;;;;;;;4.78;1.75;;;21.40;99.90;;;;;;5073061;28;20695;-69
2022/07/15 07:18:59;;;;;;;3.00;1.25;;;22.10;99.90;;;;;;5075564;28;20285;-70
2022/07/15 07:21:25;;;;;;;2.72;0.82;;;22.60;99.90;;;;;;5055162;28;20191;-70
2022/07/15 07:23:50;;;;;;;5.78;1.65;;;22.10;99.90;;;;;;5073619;28;20173;-70
2022/07/15 07:26:17;;;;;;;4.93;1.10;;;21.90;99.90;;;;;;5081144;28;20859;-70
2022/07/15 07:28:43;;;;;;;4.95;1.52;;;21.50;99.90;;;;;;5093098;28;20194;-70
2022/07/15 07:31:11;;;;;;;7.10;1.15;;;21.00;99.90;;;;;;5093356;28;20206;-70
2022/07/15 07:33:37;;;;;;;6.07;1.75;;;21.10;99.90;;;;;;5093370;28;20206;-70
2022/07/15 07:36:04;;;;;;;3.38;0.90;;;21.90;99.90;;;;;;5093656;28;20204;-70
2022/07/15 07:38:30;;;;;;;4.00;1.38;;;22.10;99.90;;;;;;5093238;28;20207;-70
2022/07/15 07:40:56;;;;;;;5.22;1.77;;;22.60;99.90;;;;;;5093187;28;20263;-70
2022/07/15 07:43:21;;;;;;;4.18;1.50;;;22.30;99.90;;;;;;5076454;28;20195;-70
2022/07/15 07:45:47;;;;;;;6.47;1.35;;;22.40;99.90;;;;;;5073262;28;20202;-71
2022/07/15 07:48:13;;;;;;;3.70;1.20;;;21.60;99.90;;;;;;5073018;28;20199;-70
2022/07/15 07:50:40;;;;;;;3.65;1.10;;;21.90;99.90;;;;;;5073739;28;20209;-70
2022/07/15 07:53:06;;;;;;;3.20;1.10;;;22.20;99.90;;;;;;5055813;28;20588;-70
2022/07/15 07:55:32;;;;;;;5.68;1.40;;;22.60;99.90;;;;;;5055434;28;20254;-70
2022/07/15 07:57:59;;;;;;;1.88;1.10;;;22.40;99.90;;;;;;5076845;28;20690;-70
2022/07/15 08:00:26;;;;;;;5.55;1.33;;;21.70;99.90;;;;;;5073468;28;20264;-70
2022/07/15 08:02:53;;;;;;;6.20;1.17;;;20.90;99.90;;;;;;5092309;28;20198;-69
2022/07/15 08:05:20;;;;;;;4.35;1.20;;;20.40;99.90;;;;;;5092085;28;20864;-70
2022/07/15 08:07:46;;;;;;;6.35;1.55;;;20.00;99.90;;;;;;5092123;28;20582;-69
2022/07/15 08:10:12;;;;;;;5.03;1.83;;;19.90;99.90;;;;;;5112891;22;20784;-70
2022/07/15 08:12:38;;;;;;;2.67;1.58;;;20.00;99.90;;;;;;5080060;28;20218;-71
2022/07/15 08:15:07;;;;;;;3.30;1.10;;;20.70;99.90;;;;;;5084568;28;20177;-71
2022/07/15 08:17:33;;;;;;;3.03;1.20;;;20.60;99.90;;;;;;5053203;28;20211;-72
2022/07/15 08:19:58;;;;;;;3.03;1.25;;;21.00;99.90;;;;;;5082539;28;20580;-71
2022/07/15 08:22:24;;;;;;;2.33;0.93;;;21.20;99.90;;;;;;5091049;28;20301;-71
2022/07/15 08:24:49;;;;;;;3.33;1.05;;;21.00;99.90;;;;;;5091065;28;20213;-70
2022/07/15 08:27:16;;;;;;;1.27;0.85;;;22.20;99.90;;;;;;5088781;28;20696;-71
2022/07/15 08:29:42;;;;;;;6.13;1.38;;;23.00;99.90;;;;;;5071096;28;20228;-70
2022/07/15 08:32:07;;;;;;;3.28;1.02;;;23.20;99.90;;;;;;5052959;28;20293;-71
2022/07/15 08:34:33;;;;;;;4.28;1.30;;;22.70;99.90;;;;;;5070918;28;20195;-71
2022/07/15 08:36:59;;;;;;;3.80;1.02;;;22.30;99.90;;;;;;5052678;28;20199;-71
2022/07/15 08:39:25;;;;;;;5.05;2.45;;;21.30;99.90;;;;;;5070336;28;20740;-71
2022/07/15 08:41:51;;;;;;;5.93;2.05;;;21.20;99.90;;;;;;5071098;28;20191;-71
2022/07/15 08:44:17;;;;;;;3.65;1.30;;;21.10;99.90;;;;;;5070529;28;20199;-71
2022/07/15 08:46:47;;;;;;;5.13;1.60;;;20.80;99.90;;;;;;5070436;28;20217;-68
2022/07/15 08:49:16;;;;;;;4.13;1.90;;;20.80;99.90;;;;;;5070511;28;20688;-71
2022/07/15 08:51:44;;;;;;;2.60;0.93;;;20.60;99.90;;;;;;5070062;28;20211;-71
2022/07/15 08:54:11;;;;;;;7.68;1.65;;;20.10;99.90;;;;;;5052670;28;20189;-71
2022/07/15 08:56:37;;;;;;;3.60;1.25;;;20.10;99.90;;;;;;5070899;28;20755;-71
2022/07/15 08:59:05;;;;;;;3.75;1.02;;;20.10;99.90;;;;;;5070324;28;20251;-71
2022/07/15 09:01:32;;;;;;;3.95;0.98;;;20.00;99.90;;;;;;5052303;28;20235;-70
2022/07/15 09:03:58;;;;;;;2.85;1.00;;;20.30;99.90;;;;;;5070599;28;20603;-72
2022/07/15 09:06:37;;;;;;;2.30;0.90;;;20.70;99.90;;;;;;5070021;28;20210;-72
2022/07/15 09:09:28;;;;;;;4.65;1.48;;;20.50;99.90;;;;;;5052469;28;20224;-71
2022/07/15 09:11:57;;;;;;;2.65;1.60;;;20.40;99.90;;;;;;5045806;28;20302;-71
2022/07/15 09:14:24;;;;;;;2.78;0.80;;;20.50;99.90;;;;;;5082656;28;20289;-71
2022/07/15 09:16:50;;;;;;;5.82;1.73;;;20.30;99.90;;;;;;5078127;28;20592;-71
2022/07/15 09:19:17;;;;;;;8.45;1.88;;;20.00;99.90;;;;;;5101021;28;20203;-72
2022/07/15 09:21:42;;;;;;;6.15;1.13;;;19.90;99.90;;;;;;5092230;28;20270;-71
2022/07/15 09:24:18;;;;;;;3.58;1.00;;;20.10;99.90;;;;;;5074908;28;20214;-71
2022/07/15 09:26:44;;;;;;;4.72;1.17;;;20.60;99.90;;;;;;5068290;28;20197;-71
2022/07/15 09:35:00;;;;;;;3.05;1.30;;;21.20;99.90;;;;;;5074132;28;20259;-72
2022/07/15 09:37:26;;;;;;;3.95;1.75;;;20.80;99.90;;;;;;5056664;28;20199;-72
2022/07/15 09:39:57;;;;;;;6.35;1.58;;;20.80;99.90;;;;;;5089617;28;20206;-70
2022/07/15 09:42:22;;;;;;;6.57;1.10;;;20.90;99.90;;;;;;5074239;28;20174;-71
2022/07/15 09:44:50;;;;;;;3.13;0.80;;;21.20;99.90;;;;;;5074267;28;20175;-71
2022/07/15 09:47:19;;;;;;;1.67;0.82;;;21.20;99.90;;;;;;5071976;28;20206;-71
2022/07/15 09:49:45;;;;;;;3.95;1.10;;;21.20;99.90;;;;;;5084126;28;20292;-70
2022/07/15 09:52:14;;;;;;;3.85;1.13;;;21.20;99.90;;;;;;5073564;28;20207;-71
2022/07/15 09:54:47;;;;;;;2.88;0.80;;;20.80;99.90;;;;;;5073648;28;20203;-71
2022/07/15 09:57:18;;;;;;;2.85;1.23;;;20.40;99.90;;;;;;5082065;28;20178;-71
2022/07/15 09:59:46;;;;;;;4.57;3.08;;;20.30;99.90;;;;;;5055991;28;20262;-70
2022/07/15 10:02:12;;;;;;;5.60;1.20;;;20.50;99.90;;;;;;5073575;28;20211;-71
2022/07/15 10:04:38;;;;;;;3.53;1.08;;;20.60;99.90;;;;;;5073413;28;20211;-71
2022/07/15 10:07:05;;;;;;;2.78;1.15;;;20.90;99.90;;;;;;5073237;28;20719;-71
2022/07/15 10:09:35;;;;;;;8.10;1.40;;;21.00;99.90;;;;;;5074622;28;20221;-71
2022/07/15 10:12:04;;;;;;;2.72;1.20;;;21.10;99.90;;;;;;5094157;28;20220;-71
2022/07/15 10:14:56;;;;;;;7.03;2.13;;;21.30;99.90;;;;;;5075553;28;20206;-71
2022/07/15 10:17:47;;;;;;;4.18;1.92;;;21.70;99.90;;;;;;5075608;28;20668;-71
2022/07/15 10:20:49;;;;;;;4.38;2.28;;;21.80;99.90;;;;;;5058804;28;20268;-71
2022/07/15 10:23:42;;;;;;;6.32;1.85;;;21.50;99.90;;;;;;5073101;28;20205;-71
2022/07/15 10:26:45;;;;;;;3.08;1.02;;;21.50;99.90;;;;;;5073368;28;20252;-71
2022/07/15 10:29:11;;;;;;;4.10;1.08;;;21.30;99.90;;;;;;5072859;28;20252;-71
2022/07/15 10:31:39;;;;;;;5.43;1.02;;;21.20;99.90;;;;;;5075216;28;20633;-72
2022/07/15 10:34:11;;;;;;;1.58;0.80;;;21.30;99.90;;;;;;5087387;28;20630;-71
2022/07/15 10:36:39;;;;;;;3.85;1.48;;;21.40;99.90;;;;;;5054841;28;20211;-71
2022/07/15 10:39:05;;;;;;;6.10;2.05;;;21.30;99.90;;;;;;5054743;28;20171;-71
2022/07/15 10:42:01;;;;;;;11.00;3.83;;;21.10;99.90;;;;;;5073287;28;20199;-71
2022/07/15 10:44:30;;;;;;;5.38;1.23;;;20.90;99.90;;;;;;5072752;28;20199;-71
2022/07/15 10:47:13;;;;;;;4.55;1.17;;;20.60;99.90;;;;;;5072618;28;20613;-71
2022/07/15 10:49:58;;;;;;;5.10;1.10;;;20.40;99.90;;;;;;5082662;28;20700;-72
2022/07/15 10:52:29;;;;;;;3.63;1.55;;;20.60;99.90;;;;;;5072506;28;20676;-71
2022/07/15 10:54:54;;;;;;;5.18;1.30;;;21.10;99.90;;;;;;5072653;28;20757;-71
2022/07/15 10:57:41;;;;;;;2.22;0.90;;;21.70;99.90;;;;;;5072700;28;20231;-72
2022/07/15 11:00:33;;;;;;;1.67;0.75;;;22.30;99.90;;;;;;5072449;28;20706;-72
2022/07/15 11:03:12;;;;;;;4.97;1.50;;;22.30;99.90;;;;;;5073080;28;20174;-71
2022/07/15 11:05:56;;;;;;;3.90;1.38;;;22.70;99.90;;;;;;5054829;28;20230;-71
2022/07/15 11:08:31;;;;;;;2.78;1.05;;;22.90;99.90;;;;;;5071922;28;20794;-72
2022/07/15 11:10:57;;;;;;;4.93;1.52;;;22.60;99.90;;;;;;5072265;28;20309;-71
2022/07/15 11:13:33;;;;;;;3.13;1.15;;;22.30;99.90;;;;;;5080798;28;20229;-72
2022/07/15 11:15:59;;;;;;;3.53;1.50;;;22.30;99.90;;;;;;5092500;28;20206;-71
2022/07/15 11:18:25;;;;;;;3.33;1.45;;;22.40;99.90;;;;;;5090332;28;20357;-72
2022/07/15 11:20:50;;;;;;;3.50;1.70;;;22.20;99.90;;;;;;5072720;28;20236;-71
2022/07/15 11:23:18;;;;;;;2.08;1.02;;;22.20;99.90;;;;;;5072187;28;20207;-71
2022/07/15 11:25:44;;;;;;;1.95;0.98;;;22.20;99.90;;;;;;5054172;28;20222;-71
2022/07/15 11:28:14;;;;;;;2.97;1.08;;;22.10;99.90;;;;;;5078325;28;20214;-71
2022/07/15 11:30:47;;;;;;;3.90;1.15;;;21.60;99.90;;;;;;5072494;28;20218;-71
2022/07/15 11:33:15;;;;;;;1.85;0.70;;;21.70;99.90;;;;;;5053981;28;20210;-72
2022/07/15 11:35:55;;;;;;;4.13;1.42;;;21.50;99.90;;;;;;5071906;28;20558;-71
2022/07/15 11:38:30;;;;;;;4.60;1.05;;;21.20;99.90;;;;;;5071225;28;20635;-72
2022/07/15 11:46:56;;;;;;;2.00;0.80;;;21.40;99.90;;;;;;5084813;28;20221;-72
2022/07/15 11:49:25;;;;;;;4.68;1.35;;;21.80;99.90;;;;;;5067117;28;20210;-71
2022/07/15 11:51:50;;;;;;;3.55;0.98;;;21.80;99.90;;;;;;5053652;28;20722;-72
2022/07/15 11:54:18;;;;;;;2.97;1.20;;;21.50;99.90;;;;;;5071400;28;20195;-71
2022/07/15 11:56:52;;;;;;;2.30;0.95;;;21.40;99.90;;;;;;5071942;28;20261;-71
2022/07/15 11:59:17;;;;;;;2.25;0.95;;;21.30;99.90;;;;;;5087380;28;20214;-71
2022/07/15 12:01:43;;;;;;;2.33;0.88;;;21.40;99.90;;;;;;5091632;28;20202;-70
2022/07/15 12:04:10;;;;;;;3.10;1.20;;;21.40;99.90;;;;;;5091303;28;20308;-72
2022/07/15 12:06:36;;;;;;;3.65;1.15;;;21.20;99.90;;;;;;5073073;28;20225;-71
2022/07/15 12:09:07;;;;;;;3.88;1.58;;;21.30;99.90;;;;;;5091820;28;20690;-71
2022/07/15 12:11:36;;;;;;;8.25;1.45;;;21.80;99.90;;;;;;5073043;28;20725;-72
2022/07/15 12:14:11;;;;;;;4.03;1.05;;;21.80;99.90;;;;;;5073470;28;20629;-71
2022/07/15 12:16:44;;;;;;;4.45;1.27;;;22.40;99.90;;;;;;5091412;28;20201;-72
2022/07/15 12:19:24;;;;;;;8.25;1.98;;;22.30;99.90;;;;;;5083372;28;20680;-72
2022/07/15 12:21:53;;;;;;;3.63;1.25;;;22.30;99.90;;;;;;5070922;28;20215;-72
2022/07/15 12:24:25;;;;;;;1.27;0.80;;;22.50;99.90;;;;;;5052968;28;20171;-71
2022/07/15 12:26:52;;;;;;;3.55;0.95;;;22.60;99.90;;;;;;5063872;28;20199;-71
2022/07/15 12:29:26;;;;;;;3.58;1.02;;;22.70;99.90;;;;;;5053069;28;20210;-71
2022/07/15 12:31:53;;;;;;;3.08;0.90;;;22.60;99.90;;;;;;5070786;28;20217;-71
2022/07/15 12:34:19;;;;;;;3.50;1.00;;;22.40;99.90;;;;;;5070894;28;20638;-71
2022/07/15 12:36:55;;;;;;;6.22;1.33;;;21.90;99.90;;;;;;5070506;28;20205;-70
2022/07/15 12:39:21;;;;;;;3.38;0.90;;;21.30;99.90;;;;;;5070389;28;20166;-71
2022/07/15 12:42:07;;;;;;;2.65;0.85;;;21.20;99.90;;;;;;5071186;28;20191;-71
2022/07/15 12:44:34;;;;;;;4.68;1.00;;;21.20;99.90;;;;;;5070591;28;20289;-71
2022/07/15 12:47:03;;;;;;;3.40;0.90;;;20.90;99.90;;;;;;5069837;28;20211;-71
2022/07/15 12:49:41;;;;;;;3.58;0.80;;;21.20;99.90;;;;;;5070633;28;20207;-71
2022/07/15 12:52:35;;;;;;;3.95;1.67;;;21.10;99.90;;;;;;5052665;28;20294;-71
2022/07/15 12:55:19;;;;;;;4.50;1.30;;;21.50;99.90;;;;;;5070816;28;20199;-70
2022/07/15 12:57:46;;;;;;;4.03;1.00;;;21.80;99.90;;;;;;5070293;28;20338;-71
2022/07/15 13:00:22;;;;;;;2.92;0.88;;;22.20;99.90;;;;;;5059347;28;20197;-70
2022/07/15 13:02:57;;;;;;;1.65;0.82;;;22.30;99.90;;;;;;5073195;28;20197;-70
2022/07/15 13:05:24;;;;;;;2.78;1.17;;;22.60;99.90;;;;;;5090638;28;20197;-71